Weather observations for the past three days for
Imperial, Imperial Municipal Airport
Metric (Imperial)
Date Time (mdt) Wind (kph) Vis. (km) Weather Sky Cond. Temperature (ºC) Relative Humidity Wind Chill (°C) Heat Index (°C) Pressure Precipitation (cm)
Air Dwpt 6 hour altimeter (cm) sea level (mb) 1 hr 3 hr 6 hr
Max. Min.
04 02:53 W 7 16.09 Fair CLR 5 1.7 79% 4 75.51 1005.5
04 01:53 NW 7 16.09 Fair CLR 7.2 1.1 66% 6 75.57 1006.0
04 00:53 NW 9 16.09 Fair CLR 6.7 1.1 68% 5 75.62 1006.5
03 23:53 S 6 16.09 Fair CLR 11.1 1.7 22.2 8.9 53% 75.64 1006.6
03 22:53 E 6 16.09 Fair CLR 12.8 0 42% 75.67 1007.1
03 21:53 Calm 16.09 Fair CLR 12.8 0.6 44% 75.69 1007.5
03 20:53 SE 7 16.09 Fair CLR 15.6 0.6 36% 75.67 1007.0
03 19:53 SE 7 16.09 Fair CLR 16.7 1.7 37% 75.64 1007.0
03 18:53 E 11 16.09 Fair CLR 21.7 0 24% 75.67 1007.2
03 17:53 E 13 16.09 Fair CLR 22.2 -0.6 23.9 21.7 22% 75.72 1008.4
03 16:53 E 13 16.09 Fair CLR 23.3 -0.6 20% 75.77 1008.5
03 15:53 Vrbl 6 16.09 Fair CLR 23.3 -1.1 20% 75.82 1008.9
03 14:53 Vrbl 9 16.09 Fair CLR 22.8 -1.1 20% 75.9 1010.6
03 13:53 E 11 G 26 16.09 Fair CLR 23.3 -0.6 20% 75.92 1010.4
03 12:53 SE 20 G 33 16.09 Fair CLR 22.8 0 22% 75.97 1011.4
03 11:53 E 20 16.09 Fair CLR 21.7 0 21.7 4.4 24% 76.05 1012.2
03 10:53 E 31 G 44 16.09 Fair CLR 20.6 0.6 26% 76.1 1012.9
03 09:53 NE 30 G 39 16.09 Fair CLR 18.9 1.1 30% 76.12 1013.5
03 08:53 NE 31 16.09 Fair CLR 17.2 0 31% 76.15 1013.8
03 07:53 NE 20 16.09 Fair CLR 13.3 1.1 44% 76.12 1013.6
03 06:53 N 13 16.09 Fair CLR 9.4 0.6 55% 8 76.07 1012.7
03 05:53 N 13 16.09 Fair CLR 5 -3.3 10.6 4.4 55% 2 76.05 1012.6
03 04:53 NW 15 16.09 Fair CLR 7.8 -3.9 44% 6 76.02 1012.1
03 03:53 W 15 16.09 Fair CLR 10 -4.4 36% 8 76.05 1012.1
03 02:53 N 11 16.09 Fair CLR 4.4 -2.2 63% 2 76.07 1013.4
03 01:53 W 13 14.48 Fair CLR 8.9 -2.8 44% 7 76.02 1012.2
03 00:53 SW 13 14.48 Fair CLR 7.8 -2.2 50% 6 76.05 1012.8
02 23:53 SW 9 14.48 Fair CLR 10 -3.3 23.9 9.4 39% 9 76.05 1012.9
02 22:53 SW 17 16.09 Fair CLR 11.7 -2.8 37% 76.07 1013.1
02 21:53 SW 15 16.09 Fair CLR 12.2 -2.8 35% 76.07 1013.4
02 20:53 S 13 16.09 Fair CLR 13.9 -3.9 29% 76.1 1013.6
02 19:53 SW 11 16.09 Fair CLR 17.2 -4.4 23% 76.07 1013.3
02 18:53 SW 15 16.09 Fair CLR 22.2 -6.7 14% 76.07 1013.6
02 17:53 W 9 16.09 Fair CLR 23.3 -8.9 24.4 18.3 11% 76.12 1014.3
02 16:53 W 19 G 31 16.09 Fair CLR 23.9 -8.9 10% 24 76.15 1014.7
02 15:53 Vrbl 11 G 37 16.09 Fair CLR 23.3 -5 15% 76.2 1015.6
02 14:53 Calm 16.09 Fair CLR 21.7 -2.8 19% 76.3 1016.8
02 13:53 SW 13 16.09 Fair CLR 21.1 -2.2 21% 76.35 1017.4
02 12:53 S 15 16.09 Fair CLR 19.4 -1.7 24% 76.43 1018.9
02 11:53 SW 19 G 33 16.09 Fair CLR 18.3 0 18.3 -0.6 29% 76.53 1020.1
02 10:53 SW 20 G 33 16.09 Fair CLR 16.1 0.6 35% 76.58 1021.0
02 09:53 S 17 16.09 Fair CLR 13.9 1.1 42% 76.63 1021.5
02 08:53 S 13 16.09 Fair CLR 11.1 1.7 53% 76.66 1022.3
02 07:53 S 13 16.09 Fair CLR 7.8 0.6 61% 6 76.66 1022.5
02 06:53 Calm 16.09 Fair CLR 2.2 -1.1 79% 76.68 1022.7
02 05:53 Calm 16.09 Fair CLR -0.6 -2.8 4.4 -1.1 85% 76.66 1022.5
02 04:53 N 6 16.09 Fair CLR -0.6 -2.8 85% 76.66 1022.5
02 03:53 N 9 16.09 Fair CLR -0.6 -2.8 85% -3 76.66 1022.3
02 02:53 W 6 16.09 Fair CLR 1.1 -1.1 85% 76.66 1022.0
02 01:53 Calm 16.09 Fair CLR 3.9 -0.6 73% 76.66 1021.8
02 00:53 E 7 16.09 A Few Clouds FEW110 2.8 -1.7 73% 1 76.66 1022.3
01 23:53 Calm 16.09 Mostly Cloudy BKN100 3.9 -0.6 17.8 3.3 73% 76.63 1021.6
01 22:53 Calm 16.09 Partly Cloudy SCT110 6.1 -0.6 63% 76.61 1021.0
01 21:53 SE 6 16.09 Mostly Cloudy BKN110 6.7 -1.1 58% 76.56 1020.6
01 20:53 E 7 16.09 Fair CLR 7.2 -1.1 56% 6 76.48 1020.2
01 19:53 E 11 16.09 Fair CLR 10 -1.7 44% 9 76.4 1018.9
01 18:53 E 26 16.09 Overcast OVC110 15 -3.9 27% 76.35 1018.2
01 17:53 NE 20 16.09 Overcast OVC110 17.8 -6.1 18.9 16.1 19% 76.3 1017.5
01 16:53 N 26 16.09 Mostly Cloudy BKN110 17.8 -6.7 18% 76.3 1017.4
01 15:53 N 31 G 44 16.09 Partly Cloudy SCT100 18.9 -6.7 17% 76.3 1017.4
01 14:53 N 17 16.09 Partly Cloudy SCT100 18.3 -6.1 19% 76.35 1018.0
01 13:53 NW 28 G 43 16.09 Fair CLR 17.8 -6.7 18% 76.38 1018.4
01 12:53 Calm 16.09 Fair CLR 16.7 -5 22% 76.4 1018.6
01 11:53 N 24 G 39 16.09 Fair CLR 16.7 -3.3 16.7 1.1 25% 76.43 1019.1
01 10:53 N 13 G 35 16.09 Fair CLR 15.6 -1.1 32% 76.45 1019.4
01 09:53 NW 13 16.09 A Few Clouds FEW085 13.3 1.1 44% 76.45 1019.5
01 08:53 NW 13 16.09 Fair CLR 9.4 1.1 56% 8 76.45 1019.9
01 07:53 NW 15 16.09 Fair CLR 6.1 1.1 71% 3 76.45 1020.1
01 06:53 NW 13 16.09 Fair CLR 2.2 0.6 89% -1 76.48 1020.2
01 05:53 W 11 16.09 Fair CLR 1.7 0 3.3 0.6 89% -1 76.4 1019.2
01 04:53 W 11 16.09 Fair CLR 1.7 0 89% -1 76.43 1019.5
01 03:53 W 11 16.09 Fair CLR 1.1 -1.7 82% -2 76.45 1019.9
Date Time (mdt) Wind (kph) Vis. (km) Weather Sky Cond. Air Dwpt Max. Min. Relative Humidity Wind Chill (°C) Heat Index (°C) altimeter (cm) sea level (mb) 1 hr 3 hr 6 hr
6 hour
Temperature (ºC) Pressure Precipitation (cm)